createdAt,value
2023-03-13T00:10:16.469Z,12.98
2023-03-13T00:12:20.068Z,12.95
2023-03-13T00:14:19.951Z,12.99
2023-03-13T00:15:19.963Z,12.99
2023-03-13T00:16:19.978Z,12.99
2023-03-13T00:17:20.041Z,13.01
2023-03-13T00:18:19.944Z,13.04
2023-03-13T00:21:19.916Z,13.04
2023-03-13T00:22:19.890Z,13.07
2023-03-13T00:23:19.916Z,13.07
2023-03-13T00:24:19.919Z,13.09
2023-03-13T00:25:19.891Z,13.08
2023-03-13T00:26:20.665Z,13.11
2023-03-13T00:27:19.899Z,13.07
2023-03-13T00:30:19.872Z,13.11
2023-03-13T00:31:20.092Z,13.12
2023-03-13T00:32:19.923Z,13.07
2023-03-13T00:33:19.829Z,13.08
2023-03-13T00:34:19.849Z,13.07
2023-03-13T00:35:19.886Z,13.08
2023-03-13T00:36:19.816Z,13.08
2023-03-13T00:37:19.792Z,13.07
2023-03-13T00:38:19.818Z,13.07
2023-03-13T00:39:19.816Z,13.08
2023-03-13T00:40:19.792Z,13.07
2023-03-13T00:42:19.794Z,13.08
2023-03-13T00:43:19.844Z,13.09
2023-03-13T00:45:19.928Z,13.05
2023-03-13T00:50:19.986Z,13.09
2023-03-13T00:51:20.094Z,13.12
2023-03-13T00:52:20.091Z,13.15
2023-03-13T00:53:20.133Z,13.15
2023-03-13T00:54:20.214Z,13.12
2023-03-13T00:55:20.489Z,13.18
2023-03-13T00:56:20.212Z,13.19
2023-03-13T00:57:20.201Z,13.19
2023-03-13T00:58:20.242Z,13.14
2023-03-13T00:59:20.250Z,13.11
2023-03-13T01:00:20.317Z,13.14
2023-03-13T01:01:20.366Z,13.11
2023-03-13T01:02:20.493Z,13.14
2023-03-13T01:03:20.569Z,13.15
2023-03-13T01:04:20.488Z,13.19
2023-03-13T01:05:36.737Z,13.21
2023-03-13T01:15:36.838Z,13.37
2023-03-13T01:16:40.576Z,13.39
2023-03-13T01:18:40.745Z,13.48
2023-03-13T01:19:40.873Z,13.48
2023-03-13T01:20:40.489Z,13.49
2023-03-13T04:04:53.132Z,13.68
2023-03-13T05:12:21.527Z,13.37
2023-03-13T05:13:21.423Z,13.37
2023-03-13T05:14:22.372Z,13.41
2023-03-13T05:15:20.852Z,13.41
2023-03-13T05:17:20.611Z,13.46
2023-03-13T05:18:20.779Z,13.48
2023-03-13T05:30:42.423Z,13.61
2023-03-13T05:41:41.689Z,13.62
2023-03-13T05:42:41.748Z,13.62
2023-03-13T05:43:41.764Z,13.63
2023-03-13T05:44:41.822Z,13.63
2023-03-13T05:45:41.922Z,13.65
2023-03-13T05:46:42.012Z,13.68
2023-03-13T05:47:42.188Z,13.65
2023-03-13T05:48:42.061Z,13.66
2023-03-13T05:49:42.035Z,13.66
2023-03-13T05:50:42.096Z,13.65
2023-03-13T05:51:42.125Z,13.68
2023-03-13T05:52:42.148Z,13.69
2023-03-13T05:53:42.240Z,13.66
2023-03-13T05:54:42.240Z,13.66
2023-03-13T05:55:42.282Z,13.66
2023-03-13T05:56:42.340Z,13.63
2023-03-13T05:57:42.390Z,13.63
2023-03-13T05:58:42.476Z,13.66
2023-03-13T05:59:42.514Z,13.68
2023-03-13T06:00:58.843Z,13.72
2023-03-13T06:03:03.133Z,13.63
2023-03-13T06:04:02.950Z,13.63
2023-03-13T06:07:42.441Z,13.63
2023-03-13T06:08:42.613Z,13.63
2023-03-13T06:09:42.360Z,13.63
2023-03-13T06:10:42.378Z,13.65
2023-03-13T06:11:42.331Z,13.66
2023-03-13T06:12:42.346Z,13.66
2023-03-13T06:13:42.347Z,13.72
2023-03-13T06:18:46.283Z,13.63
2023-03-13T06:22:22.223Z,13.69
2023-03-13T06:23:22.048Z,13.70
2023-03-13T06:24:21.902Z,13.76
2023-03-13T06:25:21.925Z,13.77
2023-03-13T06:26:21.881Z,13.79
2023-03-13T06:27:21.942Z,13.87
2023-03-13T06:28:21.897Z,13.86
2023-03-13T06:29:21.987Z,13.84
2023-03-13T06:30:21.869Z,13.87
2023-03-13T06:32:42.356Z,13.74
2023-03-13T06:33:42.261Z,13.76
2023-03-13T06:34:42.245Z,13.76
2023-03-13T06:35:55.143Z,13.80
2023-03-13T06:36:42.902Z,13.84
2023-03-13T06:37:41.911Z,13.87
2023-03-13T06:38:42.017Z,13.89
2023-03-13T06:39:42.343Z,13.93
2023-03-13T06:40:42.095Z,13.89
2023-03-13T06:41:41.944Z,13.89
2023-03-13T06:42:42.052Z,13.93
2023-03-13T06:43:41.922Z,13.94
2023-03-13T06:44:41.899Z,13.99
2023-03-13T06:47:02.362Z,13.93
2023-03-13T06:48:02.030Z,13.90
2023-03-13T06:49:02.602Z,13.87
2023-03-13T06:50:02.147Z,13.90
2023-03-13T06:51:01.942Z,13.93
2023-03-13T06:52:01.930Z,13.96
2023-03-13T06:53:01.908Z,13.99
2023-03-13T06:54:01.922Z,13.94
2023-03-13T06:55:02.257Z,13.86
2023-03-13T06:56:01.844Z,13.90
2023-03-13T06:57:01.839Z,13.96
2023-03-13T06:58:01.857Z,14.00
2023-03-13T06:59:01.898Z,14.10
2023-03-13T07:00:01.808Z,14.17
2023-03-13T07:06:42.372Z,14.44
2023-03-13T07:07:42.817Z,14.47
2023-03-13T07:10:25.085Z,14.58
2023-03-13T07:13:42.766Z,14.57
2023-03-13T07:14:42.739Z,14.58
2023-03-13T07:15:42.741Z,14.61
2023-03-13T07:16:42.963Z,14.64
2023-03-13T07:19:02.945Z,14.70
2023-03-13T07:20:02.419Z,14.70
2023-03-13T07:21:02.447Z,14.67
2023-03-13T07:22:02.442Z,14.65
2023-03-13T07:34:15.871Z,14.34
2023-03-13T07:35:15.443Z,14.37
2023-03-13T07:36:15.226Z,14.34
2023-03-13T07:37:15.349Z,14.34
2023-03-13T07:39:35.240Z,14.37
2023-03-13T07:40:35.432Z,14.34
2023-03-13T07:47:23.046Z,14.38
2023-03-13T07:48:24.158Z,14.45
2023-03-13T08:06:05.878Z,14.84
2023-03-13T08:15:08.663Z,14.60
2023-03-13T08:22:11.650Z,14.58
2023-03-13T09:01:08.698Z,15.63
2023-03-13T09:06:47.157Z,15.39
2023-03-13T09:07:48.796Z,15.38
2023-03-13T09:10:05.944Z,15.38
2023-03-13T09:11:06.006Z,15.43
2023-03-13T09:12:05.563Z,15.46
2023-03-13T09:13:05.543Z,15.49
2023-03-13T09:16:46.466Z,15.63
2023-03-13T09:17:48.415Z,15.66
2023-03-13T09:18:46.666Z,15.66
2023-03-13T09:19:57.824Z,15.71
2023-03-13T09:20:48.596Z,15.71
2023-03-13T09:21:45.732Z,15.64
2023-03-13T09:24:05.310Z,15.61
2023-03-13T09:25:05.474Z,15.63
2023-03-13T09:26:04.754Z,15.67
2023-03-13T09:29:46.425Z,15.45
2023-03-13T09:32:03.848Z,15.36
2023-03-13T09:33:05.240Z,15.39
2023-03-13T09:34:03.669Z,15.40
2023-03-13T09:46:12.082Z,15.60
2023-03-13T09:51:36.255Z,15.57
2023-03-13T09:52:35.982Z,15.69
2023-03-13T09:53:36.663Z,15.70
2023-03-13T09:54:35.913Z,15.79
2023-03-13T09:55:35.891Z,15.83
2023-03-13T09:56:35.766Z,15.87
2023-03-13T09:57:36.001Z,15.93
2023-03-13T09:58:36.781Z,15.98
2023-03-13T10:02:15.520Z,16.21
2023-03-13T10:07:35.305Z,16.56
2023-03-13T10:08:35.419Z,16.74
2023-03-13T10:09:34.815Z,16.82
2023-03-13T10:10:34.792Z,16.93
2023-03-13T10:11:35.017Z,17.03
2023-03-13T10:12:34.548Z,17.15
2023-03-13T10:13:34.531Z,17.33
2023-03-13T10:14:35.024Z,17.57
2023-03-13T10:15:34.842Z,17.63
2023-03-13T10:16:35.577Z,17.68
2023-03-13T10:17:34.477Z,17.77
2023-03-13T10:18:34.539Z,17.97
2023-03-13T10:19:34.470Z,18.12
2023-03-13T10:27:13.956Z,19.54
2023-03-13T10:28:13.531Z,19.64
2023-03-13T10:29:13.081Z,19.71
2023-03-13T10:30:13.111Z,19.82
2023-03-13T10:31:13.154Z,19.69
2023-03-13T10:32:13.685Z,19.82
2023-03-13T10:33:13.305Z,19.86
2023-03-13T10:34:14.414Z,19.93
2023-03-13T10:35:13.118Z,19.81
2023-03-13T10:36:13.238Z,19.77
2023-03-13T10:37:13.169Z,19.61
2023-03-13T10:38:13.234Z,19.60
2023-03-13T10:39:13.137Z,19.67
2023-03-13T10:40:14.190Z,19.58
2023-03-13T10:41:13.030Z,19.64
2023-03-13T10:42:16.458Z,19.67
2023-03-13T10:43:13.231Z,19.53
2023-03-13T10:45:32.656Z,19.48
2023-03-13T10:46:32.469Z,19.45
2023-03-13T10:47:32.449Z,19.50
2023-03-13T10:48:32.324Z,19.55
2023-03-13T10:49:33.046Z,19.50
2023-03-13T10:50:32.286Z,19.55
2023-03-13T10:51:32.358Z,19.68
2023-03-13T10:52:32.545Z,19.79
2023-03-13T10:53:32.247Z,19.84
2023-03-13T10:54:33.232Z,20.02
2023-03-13T10:55:32.227Z,20.04
2023-03-13T10:56:32.312Z,20.09
2023-03-13T10:57:32.501Z,20.16
2023-03-13T10:58:32.286Z,20.25
2023-03-13T10:59:32.227Z,20.30
2023-03-13T11:00:32.286Z,20.32
2023-03-13T11:01:32.241Z,20.28
2023-03-13T11:02:33.173Z,20.25
2023-03-13T11:03:32.292Z,20.39
2023-03-13T11:04:32.977Z,20.46
2023-03-13T11:05:32.244Z,20.39
2023-03-13T11:06:32.260Z,20.57
2023-03-13T11:07:32.637Z,20.77
2023-03-13T11:09:52.347Z,21.10
2023-03-13T11:19:53.131Z,21.64
2023-03-13T11:20:50.104Z,21.64
2023-03-13T11:23:10.374Z,21.48
2023-03-13T11:24:12.219Z,21.56
2023-03-13T11:25:10.010Z,21.56
2023-03-13T11:30:48.137Z,21.91
2023-03-13T11:33:09.194Z,21.89
2023-03-13T11:34:08.325Z,22.07
2023-03-13T11:35:08.604Z,22.17
2023-03-13T11:36:07.641Z,22.42
2023-03-13T11:37:07.477Z,22.36
2023-03-13T11:38:08.134Z,22.39
2023-03-13T11:39:07.834Z,22.21
2023-03-13T11:40:07.585Z,22.05
2023-03-13T11:41:07.488Z,22.37
2023-03-13T11:42:07.452Z,22.67
2023-03-13T11:55:12.934Z,23.07
2023-03-13T11:56:13.552Z,23.18
2023-03-13T11:57:13.462Z,23.21
2023-03-13T11:58:13.576Z,23.41
2023-03-13T11:59:13.187Z,23.51
2023-03-13T12:00:13.074Z,23.61
2023-03-13T12:01:12.829Z,23.63
2023-03-13T12:02:12.812Z,23.79
2023-03-13T12:03:12.842Z,23.90
2023-03-13T12:04:13.554Z,24.09
2023-03-13T12:05:12.880Z,24.27
2023-03-13T12:06:27.071Z,24.26
2023-03-13T12:07:13.733Z,24.14
2023-03-13T12:08:12.830Z,23.75
2023-03-13T12:09:13.167Z,23.87
2023-03-13T12:10:12.727Z,24.12
2023-03-13T12:11:13.771Z,24.31
2023-03-13T12:12:12.738Z,24.50
2023-03-13T12:13:12.728Z,24.74
2023-03-13T12:14:12.983Z,24.99
2023-03-13T12:15:12.778Z,25.21
2023-03-13T12:16:12.901Z,25.36
2023-03-13T12:17:12.779Z,25.54
2023-03-13T12:18:12.833Z,25.62
2023-03-13T12:19:13.519Z,25.82
2023-03-13T12:20:12.996Z,25.87
2023-03-13T12:21:12.938Z,25.69
2023-03-13T12:22:13.037Z,25.84
2023-03-13T12:24:32.317Z,25.94
2023-03-13T12:26:51.879Z,26.08
2023-03-13T12:27:51.966Z,26.08
2023-03-13T12:30:12.602Z,26.30
2023-03-13T12:31:10.890Z,26.44
2023-03-13T12:32:10.867Z,26.56
2023-03-13T12:33:10.857Z,26.52
2023-03-13T12:34:11.484Z,26.58
2023-03-13T12:35:11.209Z,26.64
2023-03-13T13:01:09.498Z,25.45
2023-03-13T13:34:08.269Z,24.67
2023-03-13T13:35:07.777Z,24.46
2023-03-13T13:36:07.862Z,24.36
2023-03-13T13:37:07.749Z,24.27
2023-03-13T13:38:07.725Z,24.27
2023-03-13T13:39:07.724Z,24.20
2023-03-13T13:40:07.758Z,24.19
2023-03-13T13:41:07.822Z,24.13
2023-03-13T13:42:07.890Z,24.12
2023-03-13T13:43:07.735Z,24.17
2023-03-13T13:44:07.657Z,24.28
2023-03-13T13:45:07.691Z,24.41
2023-03-13T13:46:07.714Z,24.57
2023-03-13T14:15:27.180Z,23.52
2023-03-13T14:16:26.665Z,23.37
2023-03-13T14:17:27.899Z,23.17
2023-03-13T14:18:26.473Z,23.15
2023-03-13T14:19:26.133Z,23.02
2023-03-13T14:20:26.399Z,23.25
2023-03-13T14:22:44.920Z,23.10
2023-03-13T14:23:45.604Z,22.83
2023-03-13T14:24:45.204Z,22.72
2023-03-13T14:25:45.706Z,22.72
2023-03-13T14:26:44.814Z,22.84
2023-03-13T14:27:44.797Z,22.97
2023-03-13T14:28:44.826Z,23.04
2023-03-13T14:29:44.871Z,22.91
2023-03-13T14:30:44.801Z,22.93
2023-03-13T14:31:44.875Z,22.81
2023-03-13T14:34:04.193Z,23.07
2023-03-13T14:35:04.138Z,23.07
2023-03-13T14:36:17.245Z,23.12
2023-03-13T14:37:17.737Z,23.15
2023-03-13T14:38:05.090Z,23.07
2023-03-13T14:39:04.079Z,22.90
2023-03-13T14:40:04.065Z,22.84
2023-03-13T14:41:04.103Z,22.87
2023-03-13T14:42:04.005Z,22.86
2023-03-13T14:43:04.035Z,22.71
2023-03-13T14:44:04.016Z,22.77
2023-03-13T14:45:04.086Z,22.88
2023-03-13T14:46:04.033Z,22.64
2023-03-13T14:47:04.189Z,22.63
2023-03-13T14:48:04.370Z,22.26
2023-03-13T14:49:04.040Z,22.44
2023-03-13T15:02:23.756Z,22.72
2023-03-13T15:03:23.897Z,22.56
2023-03-13T15:04:23.902Z,22.63
2023-03-13T15:05:23.775Z,22.63
2023-03-13T15:06:23.969Z,22.44
2023-03-13T15:07:23.661Z,22.35
2023-03-13T15:08:23.680Z,22.30
2023-03-13T15:09:23.669Z,22.42
2023-03-13T15:10:23.622Z,22.35
2023-03-13T15:11:23.645Z,22.39
2023-03-13T15:12:23.682Z,22.30
2023-03-13T15:14:43.595Z,22.29
2023-03-13T15:15:44.065Z,22.19
2023-03-13T15:18:03.151Z,22.03
2023-03-13T15:19:03.090Z,22.07
2023-03-13T15:20:02.812Z,22.07
2023-03-13T15:21:03.049Z,22.12
2023-03-13T15:22:03.220Z,22.03
2023-03-13T15:23:02.873Z,21.88
2023-03-13T15:24:02.991Z,21.69
2023-03-13T15:25:06.324Z,21.76
2023-03-13T15:26:02.834Z,21.65
2023-03-13T15:27:02.839Z,21.59
2023-03-13T15:28:02.751Z,21.55
2023-03-13T15:29:02.844Z,21.49
2023-03-13T15:30:02.776Z,21.59
2023-03-13T15:31:02.800Z,21.75
2023-03-13T15:32:02.933Z,21.75
2023-03-13T15:33:02.804Z,21.68
2023-03-13T15:34:02.674Z,21.62
2023-03-13T15:35:02.782Z,21.31
2023-03-13T15:36:02.754Z,21.07
2023-03-13T15:37:02.759Z,21.15
2023-03-13T15:38:03.233Z,21.11
2023-03-13T15:39:02.697Z,21.13
2023-03-13T15:40:02.949Z,21.17
2023-03-13T15:41:02.698Z,21.18
2023-03-13T15:42:02.665Z,21.17
2023-03-13T15:43:02.648Z,21.17
2023-03-13T15:44:02.691Z,21.24
2023-03-13T15:45:02.644Z,20.93
2023-03-13T15:46:05.371Z,21.04
2023-03-13T15:47:02.666Z,21.11
2023-03-13T15:48:02.626Z,21.07
2023-03-13T15:49:02.597Z,21.14
2023-03-13T15:50:03.686Z,20.90
2023-03-13T15:57:22.312Z,20.93
2023-03-13T15:59:23.306Z,20.90
2023-03-13T16:01:42.488Z,20.76
2023-03-13T16:02:42.010Z,20.86
2023-03-13T16:03:41.987Z,20.67
2023-03-13T16:04:42.074Z,20.77
2023-03-13T16:05:42.959Z,20.59
2023-03-13T16:06:41.909Z,20.54
2023-03-13T16:07:42.017Z,20.64
2023-03-13T16:08:42.208Z,20.69
2023-03-13T16:09:41.954Z,20.49
2023-03-13T16:10:42.023Z,20.44
2023-03-13T16:11:41.973Z,20.47
2023-03-13T16:12:42.261Z,20.56
2023-03-13T16:13:42.016Z,20.46
2023-03-13T16:14:41.934Z,20.35
2023-03-13T16:15:42.610Z,20.29
2023-03-13T16:16:41.908Z,20.15
2023-03-13T16:17:42.136Z,20.15
2023-03-13T16:18:41.922Z,20.13
2023-03-13T16:19:41.905Z,20.09
2023-03-13T16:20:42.028Z,19.95
2023-03-13T16:21:42.938Z,19.99
2023-03-13T16:22:42.896Z,20.00
2023-03-13T16:23:42.069Z,19.98
2023-03-13T16:24:42.059Z,19.91
2023-03-13T16:25:42.108Z,20.04
2023-03-13T16:26:42.231Z,20.00
2023-03-13T16:27:42.219Z,20.02
2023-03-13T16:28:42.671Z,20.09
2023-03-13T16:29:42.856Z,20.08
2023-03-13T16:30:43.182Z,19.92
2023-03-13T16:34:21.761Z,19.82
2023-03-13T16:37:56.781Z,19.67
2023-03-13T16:42:20.424Z,19.61
2023-03-13T16:43:20.055Z,19.47
2023-03-13T16:44:21.712Z,19.35
2023-03-13T16:45:19.743Z,19.28
2023-03-13T16:46:20.045Z,19.27
2023-03-13T16:47:21.180Z,19.21
2023-03-13T16:48:19.745Z,18.99
2023-03-13T16:49:19.851Z,18.96
2023-03-13T17:17:53.217Z,18.56
2023-03-13T17:45:20.684Z,18.64
2023-03-13T17:46:20.033Z,18.64
2023-03-13T17:47:18.861Z,18.48
2023-03-13T17:48:18.312Z,18.33
2023-03-13T17:49:19.212Z,18.39
2023-03-13T17:50:19.039Z,18.42
2023-03-13T17:51:19.047Z,18.33
2023-03-13T17:52:18.508Z,18.28
2023-03-13T17:53:18.544Z,18.09
2023-03-13T17:54:19.500Z,18.28
2023-03-13T17:55:18.657Z,18.27
2023-03-13T17:56:18.738Z,18.22
2023-03-13T17:57:19.789Z,18.22
2023-03-13T18:01:12.717Z,18.15
2023-03-13T18:01:58.005Z,18.11
2023-03-13T18:02:58.006Z,18.22
2023-03-13T18:03:57.999Z,18.24
2023-03-13T18:04:57.997Z,18.16
2023-03-13T18:05:58.336Z,18.08
2023-03-13T18:06:58.662Z,18.02
2023-03-13T18:07:58.262Z,17.90
2023-03-13T18:08:57.921Z,17.78
2023-03-13T18:09:57.915Z,17.91
2023-03-13T18:11:57.891Z,17.92
2023-03-13T18:12:57.893Z,17.82
2023-03-13T18:13:57.855Z,17.88
2023-03-13T18:14:58.669Z,17.85
2023-03-13T18:15:58.186Z,17.74
2023-03-13T18:16:57.899Z,17.85
2023-03-13T18:18:00.190Z,17.87
2023-03-13T18:20:17.662Z,17.97
2023-03-13T18:21:17.557Z,18.02
2023-03-13T18:22:18.800Z,18.08
2023-03-13T18:27:56.777Z,18.09
2023-03-13T18:41:16.311Z,17.68
2023-03-13T18:42:16.821Z,17.57
2023-03-13T18:43:16.529Z,17.56
2023-03-13T18:44:16.163Z,17.54
2023-03-13T18:45:16.495Z,17.50
2023-03-13T18:46:15.954Z,17.50
2023-03-13T18:47:18.132Z,17.47
2023-03-13T18:48:16.006Z,17.54
2023-03-13T18:49:16.779Z,17.48
2023-03-13T18:50:16.424Z,17.58
2023-03-13T18:51:16.589Z,17.73
2023-03-13T19:12:30.825Z,17.38
2023-03-13T19:13:15.438Z,17.36
2023-03-13T19:14:15.979Z,17.40
2023-03-13T19:32:14.067Z,17.36
2023-03-13T19:33:14.067Z,17.37
2023-03-13T19:34:14.135Z,17.38
2023-03-13T19:35:15.307Z,17.33
2023-03-13T19:36:15.173Z,17.37
2023-03-13T19:37:14.226Z,17.27
2023-03-13T19:38:14.625Z,17.33
2023-03-13T19:39:15.172Z,17.22
2023-03-13T19:41:34.873Z,17.34
2023-03-13T19:48:53.723Z,17.30
2023-03-13T19:49:53.752Z,17.38
2023-03-13T19:50:53.744Z,17.50
2023-03-13T19:51:53.748Z,17.44
2023-03-13T19:52:53.863Z,17.34
2023-03-13T19:53:53.675Z,17.30
2023-03-13T19:54:53.854Z,17.31
2023-03-13T19:55:53.695Z,17.36
2023-03-13T20:00:52.590Z,17.41
2023-03-13T20:01:52.652Z,17.44
2023-03-13T20:05:13.931Z,17.46
2023-03-13T20:07:31.967Z,17.50
2023-03-13T20:08:32.985Z,17.41
2023-03-13T20:09:31.670Z,17.56
2023-03-13T20:10:31.698Z,17.64
2023-03-13T20:11:31.682Z,17.63
2023-03-13T20:12:31.668Z,17.53
2023-03-13T20:13:31.728Z,17.61
2023-03-13T20:14:31.685Z,17.67
2023-03-13T20:15:31.701Z,17.77
2023-03-13T20:16:33.741Z,17.84
2023-03-13T20:17:31.686Z,17.67
2023-03-13T20:18:31.712Z,17.84
2023-03-13T20:19:31.646Z,17.82
2023-03-13T20:20:31.660Z,17.80
2023-03-13T20:21:31.664Z,17.66
2023-03-13T20:22:31.654Z,17.64
2023-03-13T20:23:31.627Z,17.71
2023-03-13T20:24:31.994Z,17.57
2023-03-13T20:25:33.233Z,17.43
2023-03-13T20:26:31.570Z,17.23
2023-03-13T20:27:31.863Z,17.27
2023-03-13T20:28:31.572Z,17.41
2023-03-13T20:29:31.569Z,17.34
2023-03-13T20:30:31.597Z,17.36
2023-03-13T20:31:31.622Z,17.31
2023-03-13T20:32:31.582Z,17.37
2023-03-13T20:33:31.616Z,17.41
2023-03-13T20:34:31.534Z,17.51
2023-03-13T20:35:31.557Z,17.51
2023-03-13T20:36:31.715Z,17.30
2023-03-13T20:37:31.521Z,17.27
2023-03-13T20:38:31.498Z,17.27
2023-03-13T20:39:31.543Z,17.27
2023-03-13T20:40:31.502Z,17.30
2023-03-13T20:41:31.506Z,17.16
2023-03-13T20:42:31.495Z,17.15
2023-03-13T20:43:31.500Z,17.07
2023-03-13T20:44:31.492Z,17.17
2023-03-13T20:45:31.451Z,17.25
2023-03-13T20:46:31.500Z,17.26
2023-03-13T20:47:31.536Z,17.23
2023-03-13T20:48:31.561Z,17.09
2023-03-13T20:49:31.568Z,17.05
2023-03-13T20:50:31.624Z,17.01
2023-03-13T20:51:31.664Z,17.15
2023-03-13T20:52:31.718Z,17.30
2023-03-13T20:53:31.755Z,17.31
2023-03-13T20:54:31.770Z,17.22
2023-03-13T20:55:31.822Z,17.12
2023-03-13T20:56:31.832Z,17.31
2023-03-13T20:57:31.852Z,17.26
2023-03-13T20:58:31.904Z,17.29
2023-03-13T20:59:31.908Z,17.26
2023-03-13T21:00:31.976Z,17.05
2023-03-13T21:01:32.533Z,17.15
2023-03-13T21:02:32.055Z,17.30
2023-03-13T21:03:32.043Z,17.17
2023-03-13T21:04:48.397Z,17.06
2023-03-13T21:11:12.138Z,16.93
2023-03-13T21:26:30.456Z,17.06
2023-03-13T21:27:30.620Z,17.17
2023-03-13T21:28:30.389Z,17.15
2023-03-13T21:29:30.399Z,17.12
2023-03-13T21:30:30.463Z,17.10
2023-03-13T21:31:30.521Z,17.09
2023-03-13T21:32:31.416Z,17.09
2023-03-13T21:33:30.335Z,17.23
2023-03-13T21:34:30.330Z,17.26
2023-03-13T21:35:30.847Z,17.09
2023-03-13T21:36:30.320Z,16.90
2023-03-13T21:37:30.306Z,17.10
2023-03-13T21:38:30.332Z,17.19
2023-03-13T21:39:30.492Z,17.22
2023-03-13T21:40:30.262Z,17.09
2023-03-13T21:41:30.323Z,17.05
2023-03-13T21:42:30.267Z,17.20
2023-03-13T21:43:30.257Z,17.26
2023-03-13T21:44:30.350Z,17.19
2023-03-13T21:45:30.268Z,17.17
2023-03-13T21:46:30.342Z,17.01
2023-03-13T21:47:30.254Z,17.16
2023-03-13T21:48:30.220Z,17.20
2023-03-13T21:49:30.859Z,17.06
2023-03-13T21:50:30.233Z,17.05
2023-03-13T21:51:30.205Z,17.12
2023-03-13T21:52:30.280Z,17.16
2023-03-13T21:53:30.345Z,17.10
2023-03-13T21:54:30.163Z,17.05
2023-03-13T21:55:30.183Z,17.15
2023-03-13T21:56:30.776Z,17.05
2023-03-13T22:33:26.233Z,16.95
2023-03-13T22:34:29.853Z,16.83
2023-03-13T22:35:29.832Z,16.79
2023-03-13T22:36:29.533Z,16.85
2023-03-13T22:37:29.520Z,16.75
2023-03-13T22:38:29.501Z,16.80
2023-03-13T22:39:29.511Z,16.90
2023-03-13T22:40:29.509Z,16.87
2023-03-13T22:41:29.527Z,16.89
2023-03-13T22:42:29.469Z,17.03
2023-03-13T22:43:29.507Z,16.93
2023-03-13T22:44:29.472Z,16.87
2023-03-13T22:45:29.591Z,16.97
2023-03-13T22:46:29.496Z,16.83
2023-03-13T22:47:29.467Z,16.93
2023-03-13T22:48:29.464Z,17.02
2023-03-13T22:49:30.611Z,17.07
2023-03-13T22:50:29.848Z,16.97
2023-03-13T22:51:29.430Z,17.13
2023-03-13T22:52:29.443Z,17.10
2023-03-13T22:53:29.434Z,17.09
2023-03-13T22:54:29.511Z,17.17
2023-03-13T22:55:29.669Z,17.20
2023-03-13T22:56:29.553Z,17.15
2023-03-13T22:57:29.590Z,17.17
2023-03-13T22:58:29.652Z,17.15
2023-03-13T22:59:29.869Z,17.20
2023-03-13T23:02:49.534Z,17.25
2023-03-13T23:03:49.221Z,17.19
2023-03-13T23:04:49.384Z,17.16
2023-03-13T23:05:49.158Z,17.13
2023-03-13T23:06:49.252Z,17.22
2023-03-13T23:07:50.084Z,17.17
2023-03-13T23:08:49.185Z,17.09
2023-03-13T23:09:49.121Z,17.15
2023-03-13T23:10:49.163Z,17.17
2023-03-13T23:11:49.131Z,17.02
2023-03-13T23:12:49.128Z,17.13
2023-03-13T23:13:49.211Z,16.97
2023-03-13T23:14:49.110Z,17.12
2023-03-13T23:15:56.460Z,17.19
2023-03-13T23:16:50.072Z,17.15
2023-03-13T23:24:30.505Z,16.97
2023-03-13T23:25:30.352Z,17.07
